LFOE 191200Z AUTO 02006KT 320V060 CAVOK 23/07 Q1024 NOSIG

ElémentsDécodage
LFOE Station météo située sur l'aérodrome de EVREUX Fauville
191200Z émis le 19 du mois à 12h00 UTC
AUTO Bulletin édité par un automate
02006KT vent du 020°, 06 noeuds
320V060 vent de direction variable entre 320° et 060°
CAVOK Ceiling And Visibility OK
- Visibilité de 10 Km ou plus
- Pas de nuage au-dessous de 1500m ou au-dessous de l'altitude minimale du secteur la plus élevée (si>1500m) et absence de CB
- pas de temps présent significatif
23/07 température 23°C, point de rosée 07°C
 soit une humidité relative de 36%
Q1024 la pression au niveau de la mer (QNH) est de 1024 hPa
NOSIG Pas de changement significatif prévu au cours des deux heures suivant l'heure de l'observation